sensor_id;sensor_type;location;lat;lon;timestamp;temperature;humidity
69162;DHT22;56269;51.738;21.652;2023-04-01T00:01:25;6.81;99.99
69162;DHT22;56269;51.738;21.652;2023-04-01T00:03:51;6.65;99.99
69162;DHT22;56269;51.738;21.652;2023-04-01T00:06:22;6.65;99.99
69162;DHT22;56269;51.738;21.652;2023-04-01T00:08:49;6.71;99.99
69162;DHT22;56269;51.738;21.652;2023-04-01T00:11:16;6.67;99.99
69162;DHT22;56269;51.738;21.652;2023-04-01T00:13:43;6.74;99.99
69162;DHT22;56269;51.738;21.652;2023-04-01T00:16:10;6.68;99.99
69162;DHT22;56269;51.738;21.652;2023-04-01T00:18:36;6.78;99.99
69162;DHT22;56269;51.738;21.652;2023-04-01T00:21:03;6.77;99.99
69162;DHT22;56269;51.738;21.652;2023-04-01T00:23:29;6.72;99.99
69162;DHT22;56269;51.738;21.652;2023-04-01T00:25:56;6.58;99.99
69162;DHT22;56269;51.738;21.652;2023-04-01T00:28:24;6.51;99.99
69162;DHT22;56269;51.738;21.652;2023-04-01T00:30:51;6.54;99.99
69162;DHT22;56269;51.738;21.652;2023-04-01T00:33:18;6.54;99.99
69162;DHT22;56269;51.738;21.652;2023-04-01T00:35:45;6.54;99.99
69162;DHT22;56269;51.738;21.652;2023-04-01T00:38:12;6.52;99.99
69162;DHT22;56269;51.738;21.652;2023-04-01T00:40:44;6.47;99.99
69162;DHT22;56269;51.738;21.652;2023-04-01T00:43:18;6.40;99.99
69162;DHT22;56269;51.738;21.652;2023-04-01T00:45:46;6.40;99.99
69162;DHT22;56269;51.738;21.652;2023-04-01T00:48:19;6.40;99.99
69162;DHT22;56269;51.738;21.652;2023-04-01T00:50:53;6.40;99.99
69162;DHT22;56269;51.738;21.652;2023-04-01T00:53:20;6.40;99.99
69162;DHT22;56269;51.738;21.652;2023-04-01T00:55:56;6.33;99.99
69162;DHT22;56269;51.738;21.652;2023-04-01T00:58:25;6.30;99.99
69162;DHT22;56269;51.738;21.652;2023-04-01T01:00:54;6.29;99.99
69162;DHT22;56269;51.738;21.652;2023-04-01T01:03:21;6.36;99.99
69162;DHT22;56269;51.738;21.652;2023-04-01T01:11:29;6.37;99.99
69162;DHT22;56269;51.738;21.652;2023-04-01T01:14:03;6.44;99.99
69162;DHT22;56269;51.738;21.652;2023-04-01T01:16:36;6.50;99.99
69162;DHT22;56269;51.738;21.652;2023-04-01T01:27:07;6.65;99.99
69162;DHT22;56269;51.738;21.652;2023-04-01T01:35:56;6.64;99.99
69162;DHT22;56269;51.738;21.652;2023-04-01T01:38:28;6.68;99.99
69162;DHT22;56269;51.738;21.652;2023-04-01T01:40:55;6.68;99.99
69162;DHT22;56269;51.738;21.652;2023-04-01T01:43:27;6.57;99.99
69162;DHT22;56269;51.738;21.652;2023-04-01T01:45:58;6.55;99.99
69162;DHT22;56269;51.738;21.652;2023-04-01T01:48:27;6.58;99.99
69162;DHT22;56269;51.738;21.652;2023-04-01T01:50:55;6.50;99.99
69162;DHT22;56269;51.738;21.652;2023-04-01T01:53:22;6.41;99.99
69162;DHT22;56269;51.738;21.652;2023-04-01T01:55:48;6.38;99.99
69162;DHT22;56269;51.738;21.652;2023-04-01T01:58:29;6.45;99.99
69162;DHT22;56269;51.738;21.652;2023-04-01T02:00:59;6.38;99.99
69162;DHT22;56269;51.738;21.652;2023-04-01T02:03:29;6.27;99.99
69162;DHT22;56269;51.738;21.652;2023-04-01T02:06:00;6.23;99.99
69162;DHT22;56269;51.738;21.652;2023-04-01T02:08:45;6.29;99.99
69162;DHT22;56269;51.738;21.652;2023-04-01T02:11:17;6.24;99.99
69162;DHT22;56269;51.738;21.652;2023-04-01T02:14:23;6.24;99.99
69162;DHT22;56269;51.738;21.652;2023-04-01T02:16:58;6.21;99.99
69162;DHT22;56269;51.738;21.652;2023-04-01T02:19:38;6.37;99.99
69162;DHT22;56269;51.738;21.652;2023-04-01T02:22:09;6.38;99.99
69162;DHT22;56269;51.738;21.652;2023-04-01T02:24:39;6.37;99.99
69162;DHT22;56269;51.738;21.652;2023-04-01T02:27:06;6.06;99.99
69162;DHT22;56269;51.738;21.652;2023-04-01T02:29:34;5.85;99.99
69162;DHT22;56269;51.738;21.652;2023-04-01T02:32:02;5.56;99.99
69162;DHT22;56269;51.738;21.652;2023-04-01T02:34:30;5.32;99.99
69162;DHT22;56269;51.738;21.652;2023-04-01T02:36:57;5.21;99.99
69162;DHT22;56269;51.738;21.652;2023-04-01T02:39:25;5.14;99.99
69162;DHT22;56269;51.738;21.652;2023-04-01T02:41:52;5.11;99.99
69162;DHT22;56269;51.738;21.652;2023-04-01T02:44:19;5.17;99.99
69162;DHT22;56269;51.738;21.652;2023-04-01T02:46:45;4.98;99.99
69162;DHT22;56269;51.738;21.652;2023-04-01T02:49:11;5.07;99.99
69162;DHT22;56269;51.738;21.652;2023-04-01T02:51:38;5.20;99.99
69162;DHT22;56269;51.738;21.652;2023-04-01T02:54:04;5.31;99.99
69162;DHT22;56269;51.738;21.652;2023-04-01T02:56:32;5.47;99.99
69162;DHT22;56269;51.738;21.652;2023-04-01T02:58:58;5.51;99.99
69162;DHT22;56269;51.738;21.652;2023-04-01T03:01:25;5.56;99.99
69162;DHT22;56269;51.738;21.652;2023-04-01T03:03:52;5.65;99.99
69162;DHT22;56269;51.738;21.652;2023-04-01T03:06:18;5.75;99.99
69162;DHT22;56269;51.738;21.652;2023-04-01T03:08:46;5.80;99.99
69162;DHT22;56269;51.738;21.652;2023-04-01T03:11:12;5.95;99.99
69162;DHT22;56269;51.738;21.652;2023-04-01T03:13:39;6.05;99.99
69162;DHT22;56269;51.738;21.652;2023-04-01T03:16:05;6.11;99.99
69162;DHT22;56269;51.738;21.652;2023-04-01T03:18:32;6.17;99.99
69162;DHT22;56269;51.738;21.652;2023-04-01T03:21:16;6.23;99.99
69162;DHT22;56269;51.738;21.652;2023-04-01T03:23:43;6.27;99.99
69162;DHT22;56269;51.738;21.652;2023-04-01T03:26:10;6.41;99.99
69162;DHT22;56269;51.738;21.652;2023-04-01T03:28:37;6.48;99.99
69162;DHT22;56269;51.738;21.652;2023-04-01T03:31:03;6.57;99.99
69162;DHT22;56269;51.738;21.652;2023-04-01T03:33:30;6.63;99.99
69162;DHT22;56269;51.738;21.652;2023-04-01T03:35:58;6.70;99.99
69162;DHT22;56269;51.738;21.652;2023-04-01T03:38:24;6.68;99.99
69162;DHT22;56269;51.738;21.652;2023-04-01T03:40:50;6.74;99.99
69162;DHT22;56269;51.738;21.652;2023-04-01T03:43:17;6.77;99.99
69162;DHT22;56269;51.738;21.652;2023-04-01T03:45:48;6.81;99.99
69162;DHT22;56269;51.738;21.652;2023-04-01T03:48:15;6.88;99.99
69162;DHT22;56269;51.738;21.652;2023-04-01T03:50:42;6.88;99.99
69162;DHT22;56269;51.738;21.652;2023-04-01T03:53:09;6.96;99.99
69162;DHT22;56269;51.738;21.652;2023-04-01T03:55:36;6.93;99.99
69162;DHT22;56269;51.738;21.652;2023-04-01T03:58:04;6.95;99.99
69162;DHT22;56269;51.738;21.652;2023-04-01T04:00:31;6.98;99.99
69162;DHT22;56269;51.738;21.652;2023-04-01T04:02:58;6.96;99.99
69162;DHT22;56269;51.738;21.652;2023-04-01T04:05:25;7.08;99.99
69162;DHT22;56269;51.738;21.652;2023-04-01T04:07:53;7.01;99.99
69162;DHT22;56269;51.738;21.652;2023-04-01T04:10:20;6.99;99.99
69162;DHT22;56269;51.738;21.652;2023-04-01T04:12:50;7.03;99.99
69162;DHT22;56269;51.738;21.652;2023-04-01T04:15:25;7.02;99.99
69162;DHT22;56269;51.738;21.652;2023-04-01T04:17:51;7.03;99.99
69162;DHT22;56269;51.738;21.652;2023-04-01T04:20:18;7.03;99.99
69162;DHT22;56269;51.738;21.652;2023-04-01T04:22:44;7.05;99.99
69162;DHT22;56269;51.738;21.652;2023-04-01T04:25:11;7.01;99.99
69162;DHT22;56269;51.738;21.652;2023-04-01T04:27:37;7.06;99.99
69162;DHT22;56269;51.738;21.652;2023-04-01T04:30:06;7.03;99.99
69162;DHT22;56269;51.738;21.652;2023-04-01T04:32:34;7.11;99.99
69162;DHT22;56269;51.738;21.652;2023-04-01T04:35:00;7.12;99.99
69162;DHT22;56269;51.738;21.652;2023-04-01T04:37:26;7.18;99.99
69162;DHT22;56269;51.738;21.652;2023-04-01T04:39:52;7.22;99.99
69162;DHT22;56269;51.738;21.652;2023-04-01T04:42:20;7.27;99.99
69162;DHT22;56269;51.738;21.652;2023-04-01T04:44:46;7.27;99.99
69162;DHT22;56269;51.738;21.652;2023-04-01T04:47:14;7.30;99.99
69162;DHT22;56269;51.738;21.652;2023-04-01T04:49:40;7.29;99.99
69162;DHT22;56269;51.738;21.652;2023-04-01T04:52:09;7.34;99.99
69162;DHT22;56269;51.738;21.652;2023-04-01T04:54:36;7.32;99.99
69162;DHT22;56269;51.738;21.652;2023-04-01T04:57:02;7.34;99.99
69162;DHT22;56269;51.738;21.652;2023-04-01T04:59:30;7.36;99.99
69162;DHT22;56269;51.738;21.652;2023-04-01T05:01:58;7.36;99.99
69162;DHT22;56269;51.738;21.652;2023-04-01T05:04:24;7.39;99.99
69162;DHT22;56269;51.738;21.652;2023-04-01T05:06:51;7.43;99.99
69162;DHT22;56269;51.738;21.652;2023-04-01T05:09:17;7.39;99.99
69162;DHT22;56269;51.738;21.652;2023-04-01T05:11:44;7.44;99.99
69162;DHT22;56269;51.738;21.652;2023-04-01T05:14:15;7.44;99.99
69162;DHT22;56269;51.738;21.652;2023-04-01T05:16:42;7.49;99.99
69162;DHT22;56269;51.738;21.652;2023-04-01T05:19:08;7.50;99.99
69162;DHT22;56269;51.738;21.652;2023-04-01T05:21:35;7.56;99.99
69162;DHT22;56269;51.738;21.652;2023-04-01T05:24:02;7.62;99.99
69162;DHT22;56269;51.738;21.652;2023-04-01T05:26:28;7.66;99.99
69162;DHT22;56269;51.738;21.652;2023-04-01T05:28:54;7.74;99.99
69162;DHT22;56269;51.738;21.652;2023-04-01T05:31:21;7.71;99.99
69162;DHT22;56269;51.738;21.652;2023-04-01T05:33:47;7.71;99.99
69162;DHT22;56269;51.738;21.652;2023-04-01T05:36:16;7.69;99.99
69162;DHT22;56269;51.738;21.652;2023-04-01T05:38:43;7.81;99.99
69162;DHT22;56269;51.738;21.652;2023-04-01T05:41:11;7.97;99.99
69162;DHT22;56269;51.738;21.652;2023-04-01T05:43:39;8.29;99.99
69162;DHT22;56269;51.738;21.652;2023-04-01T05:46:06;8.60;99.99
69162;DHT22;56269;51.738;21.652;2023-04-01T05:48:33;8.86;99.99
69162;DHT22;56269;51.738;21.652;2023-04-01T05:51:02;8.90;99.99
69162;DHT22;56269;51.738;21.652;2023-04-01T05:53:28;8.83;99.99
69162;DHT22;56269;51.738;21.652;2023-04-01T05:55:56;8.97;99.64
69162;DHT22;56269;51.738;21.652;2023-04-01T05:58:22;8.88;99.48
69162;DHT22;56269;51.738;21.652;2023-04-01T06:00:49;9.18;99.33
69162;DHT22;56269;51.738;21.652;2023-04-01T06:03:15;9.21;99.46
69162;DHT22;56269;51.738;21.652;2023-04-01T06:05:43;9.14;99.21
69162;DHT22;56269;51.738;21.652;2023-04-01T06:08:12;9.04;99.51
69162;DHT22;56269;51.738;21.652;2023-04-01T06:19:48;9.51;97.51
69162;DHT22;56269;51.738;21.652;2023-04-01T06:33:13;10.19;95.68
69162;DHT22;56269;51.738;21.652;2023-04-01T06:36:23;10.63;95.46
69162;DHT22;56269;51.738;21.652;2023-04-01T06:40:17;10.09;94.28
69162;DHT22;56269;51.738;21.652;2023-04-01T06:44:57;10.16;94.70
69162;DHT22;56269;51.738;21.652;2023-04-01T06:47:28;10.50;92.55
69162;DHT22;56269;51.738;21.652;2023-04-01T06:50:20;10.94;91.96
69162;DHT22;56269;51.738;21.652;2023-04-01T06:55:44;11.45;91.11
69162;DHT22;56269;51.738;21.652;2023-04-01T06:58:25;11.73;90.83
69162;DHT22;56269;51.738;21.652;2023-04-01T07:01:06;11.80;90.44
69162;DHT22;56269;51.738;21.652;2023-04-01T07:03:54;11.83;91.43
69162;DHT22;56269;51.738;21.652;2023-04-01T07:06:48;11.52;89.99
69162;DHT22;56269;51.738;21.652;2023-04-01T07:09:20;11.65;91.04
69162;DHT22;56269;51.738;21.652;2023-04-01T07:11:50;11.16;90.71
69162;DHT22;56269;51.738;21.652;2023-04-01T07:14:20;11.33;91.45
69162;DHT22;56269;51.738;21.652;2023-04-01T07:16:53;10.94;91.22
69162;DHT22;56269;51.738;21.652;2023-04-01T07:19:29;10.84;92.41
69162;DHT22;56269;51.738;21.652;2023-04-01T07:22:29;10.64;91.87
69162;DHT22;56269;51.738;21.652;2023-04-01T07:24:57;11.10;90.70
69162;DHT22;56269;51.738;21.652;2023-04-01T07:27:27;10.94;91.25
69162;DHT22;56269;51.738;21.652;2023-04-01T07:29:56;10.87;91.31
69162;DHT22;56269;51.738;21.652;2023-04-01T07:32:44;10.87;90.91
69162;DHT22;56269;51.738;21.652;2023-04-01T07:40:53;11.12;91.21
69162;DHT22;56269;51.738;21.652;2023-04-01T07:43:46;11.23;90.60
69162;DHT22;56269;51.738;21.652;2023-04-01T07:46:37;11.01;89.66
69162;DHT22;56269;51.738;21.652;2023-04-01T07:49:34;11.02;89.97
69162;DHT22;56269;51.738;21.652;2023-04-01T07:52:11;11.16;89.67
69162;DHT22;56269;51.738;21.652;2023-04-01T08:00:18;11.36;89.56
69162;DHT22;56269;51.738;21.652;2023-04-01T08:06:44;12.01;87.50
69162;DHT22;56269;51.738;21.652;2023-04-01T08:15:27;13.50;81.46
69162;DHT22;56269;51.738;21.652;2023-04-01T08:18:11;12.97;82.29
69162;DHT22;56269;51.738;21.652;2023-04-01T08:20:58;12.92;80.99
69162;DHT22;56269;51.738;21.652;2023-04-01T08:23:32;12.74;83.71
69162;DHT22;56269;51.738;21.652;2023-04-01T08:28:34;11.98;86.34
69162;DHT22;56269;51.738;21.652;2023-04-01T08:31:09;11.35;86.01
69162;DHT22;56269;51.738;21.652;2023-04-01T08:33:38;11.26;87.47
69162;DHT22;56269;51.738;21.652;2023-04-01T08:36:12;11.36;88.89
69162;DHT22;56269;51.738;21.652;2023-04-01T08:38:48;11.51;88.41
69162;DHT22;56269;51.738;21.652;2023-04-01T08:41:39;11.67;87.31
69162;DHT22;56269;51.738;21.652;2023-04-01T08:47:45;11.63;86.97
69162;DHT22;56269;51.738;21.652;2023-04-01T09:10:11;12.21;84.26
69162;DHT22;56269;51.738;21.652;2023-04-01T09:27:01;12.61;84.78
69162;DHT22;56269;51.738;21.652;2023-04-01T09:33:00;12.03;84.98
69162;DHT22;56269;51.738;21.652;2023-04-01T09:35:22;12.33;87.27
69162;DHT22;56269;51.738;21.652;2023-04-01T09:38:28;12.56;87.60
69162;DHT22;56269;51.738;21.652;2023-04-01T09:46:37;12.34;84.66
69162;DHT22;56269;51.738;21.652;2023-04-01T09:52:09;12.56;82.59
69162;DHT22;56269;51.738;21.652;2023-04-01T09:54:59;12.65;82.49
69162;DHT22;56269;51.738;21.652;2023-04-01T09:57:39;13.28;80.85
69162;DHT22;56269;51.738;21.652;2023-04-01T10:03:29;13.77;79.34
69162;DHT22;56269;51.738;21.652;2023-04-01T10:20:41;12.00;83.80
69162;DHT22;56269;51.738;21.652;2023-04-01T10:23:37;11.87;84.97
69162;DHT22;56269;51.738;21.652;2023-04-01T10:47:03;11.38;86.96
69162;DHT22;56269;51.738;21.652;2023-04-01T10:53:15;11.22;87.21
69162;DHT22;56269;51.738;21.652;2023-04-01T11:19:34;11.16;87.73
69162;DHT22;56269;51.738;21.652;2023-04-01T11:22:29;11.29;86.90
69162;DHT22;56269;51.738;21.652;2023-04-01T11:28:06;11.47;87.46
69162;DHT22;56269;51.738;21.652;2023-04-01T11:31:10;11.62;88.56
69162;DHT22;56269;51.738;21.652;2023-04-01T11:34:07;11.70;86.05
69162;DHT22;56269;51.738;21.652;2023-04-01T11:51:20;12.68;83.89
69162;DHT22;56269;51.738;21.652;2023-04-01T11:56:43;12.75;84.38
69162;DHT22;56269;51.738;21.652;2023-04-01T11:59:32;12.54;82.54
69162;DHT22;56269;51.738;21.652;2023-04-01T12:02:25;12.40;83.69
69162;DHT22;56269;51.738;21.652;2023-04-01T12:05:22;12.42;82.81
69162;DHT22;56269;51.738;21.652;2023-04-01T12:08:37;12.38;84.37
69162;DHT22;56269;51.738;21.652;2023-04-01T12:11:05;12.33;83.70
69162;DHT22;56269;51.738;21.652;2023-04-01T12:16:30;12.54;83.97
69162;DHT22;56269;51.738;21.652;2023-04-01T12:22:32;13.13;81.32
69162;DHT22;56269;51.738;21.652;2023-04-01T12:25:06;13.10;80.28
69162;DHT22;56269;51.738;21.652;2023-04-01T12:36:43;13.27;81.20
69162;DHT22;56269;51.738;21.652;2023-04-01T12:53:05;14.35;79.28
69162;DHT22;56269;51.738;21.652;2023-04-01T12:55:46;13.91;78.81
69162;DHT22;56269;51.738;21.652;2023-04-01T13:04:12;13.36;80.56
69162;DHT22;56269;51.738;21.652;2023-04-01T13:07:19;12.91;79.53
69162;DHT22;56269;51.738;21.652;2023-04-01T13:16:06;12.78;82.64
69162;DHT22;56269;51.738;21.652;2023-04-01T13:18:59;12.64;82.07
69162;DHT22;56269;51.738;21.652;2023-04-01T13:30:34;12.28;83.96
69162;DHT22;56269;51.738;21.652;2023-04-01T13:41:18;10.10;95.09
69162;DHT22;56269;51.738;21.652;2023-04-01T13:53:27;9.61;99.18
69162;DHT22;56269;51.738;21.652;2023-04-01T13:55:54;9.61;98.93
69162;DHT22;56269;51.738;21.652;2023-04-01T13:58:31;9.79;99.42
69162;DHT22;56269;51.738;21.652;2023-04-01T14:01:12;10.06;98.64
69162;DHT22;56269;51.738;21.652;2023-04-01T14:09:15;10.57;97.44
69162;DHT22;56269;51.738;21.652;2023-04-01T14:14:46;10.64;96.07
69162;DHT22;56269;51.738;21.652;2023-04-01T14:31:15;10.51;97.31
69162;DHT22;56269;51.738;21.652;2023-04-01T14:45:15;10.19;98.58
69162;DHT22;56269;51.738;21.652;2023-04-01T14:48:17;10.12;98.57
69162;DHT22;56269;51.738;21.652;2023-04-01T14:50:51;10.08;98.68
69162;DHT22;56269;51.738;21.652;2023-04-01T14:58:21;10.08;98.55
69162;DHT22;56269;51.738;21.652;2023-04-01T15:03:22;10.13;97.22
69162;DHT22;56269;51.738;21.652;2023-04-01T15:09:28;10.36;97.79
69162;DHT22;56269;51.738;21.652;2023-04-01T15:14:46;10.40;96.20
69162;DHT22;56269;51.738;21.652;2023-04-01T15:23:25;10.36;96.72
69162;DHT22;56269;51.738;21.652;2023-04-01T15:34:52;10.53;95.90
69162;DHT22;56269;51.738;21.652;2023-04-01T15:51:08;10.63;95.81
69162;DHT22;56269;51.738;21.652;2023-04-01T15:57:02;10.59;95.17
69162;DHT22;56269;51.738;21.652;2023-04-01T15:59:53;10.50;95.56
69162;DHT22;56269;51.738;21.652;2023-04-01T16:03:07;10.26;94.11
69162;DHT22;56269;51.738;21.652;2023-04-01T16:06:02;10.36;94.92
69162;DHT22;56269;51.738;21.652;2023-04-01T16:09:13;10.10;95.89
69162;DHT22;56269;51.738;21.652;2023-04-01T16:11:55;10.14;97.07
69162;DHT22;56269;51.738;21.652;2023-04-01T16:17:29;10.20;96.86
69162;DHT22;56269;51.738;21.652;2023-04-01T16:20:17;10.06;97.15
69162;DHT22;56269;51.738;21.652;2023-04-01T16:23:22;9.89;97.48
69162;DHT22;56269;51.738;21.652;2023-04-01T16:26:19;9.71;98.49
69162;DHT22;56269;51.738;21.652;2023-04-01T16:37:42;9.34;99.99
69162;DHT22;56269;51.738;21.652;2023-04-01T16:43:25;9.18;99.99
69162;DHT22;56269;51.738;21.652;2023-04-01T16:51:53;8.86;99.99
69162;DHT22;56269;51.738;21.652;2023-04-01T16:56:55;8.57;99.99
69162;DHT22;56269;51.738;21.652;2023-04-01T16:59:37;8.48;99.99
69162;DHT22;56269;51.738;21.652;2023-04-01T17:08:55;8.26;99.99
69162;DHT22;56269;51.738;21.652;2023-04-01T17:11:37;8.31;99.99
69162;DHT22;56269;51.738;21.652;2023-04-01T17:25:44;8.69;99.99
69162;DHT22;56269;51.738;21.652;2023-04-01T17:28:34;8.70;99.99
69162;DHT22;56269;51.738;21.652;2023-04-01T17:31:18;8.73;99.99
69162;DHT22;56269;51.738;21.652;2023-04-01T17:39:49;8.70;99.99
69162;DHT22;56269;51.738;21.652;2023-04-01T17:47:49;8.70;99.99
69162;DHT22;56269;51.738;21.652;2023-04-01T17:50:28;8.73;99.99
69162;DHT22;56269;51.738;21.652;2023-04-01T17:53:24;8.72;99.99
69162;DHT22;56269;51.738;21.652;2023-04-01T17:56:15;8.75;99.99
69162;DHT22;56269;51.738;21.652;2023-04-01T17:58:48;8.75;99.99
69162;DHT22;56269;51.738;21.652;2023-04-01T18:01:30;8.75;99.99
69162;DHT22;56269;51.738;21.652;2023-04-01T18:12:10;8.75;99.99
69162;DHT22;56269;51.738;21.652;2023-04-01T18:20:25;8.63;99.99
69162;DHT22;56269;51.738;21.652;2023-04-01T18:43:32;8.25;99.99
69162;DHT22;56269;51.738;21.652;2023-04-01T18:51:54;8.16;99.99
69162;DHT22;56269;51.738;21.652;2023-04-01T18:54:31;8.09;99.99
69162;DHT22;56269;51.738;21.652;2023-04-01T18:57:13;8.16;99.99
69162;DHT22;56269;51.738;21.652;2023-04-01T18:59:53;8.18;99.99
69162;DHT22;56269;51.738;21.652;2023-04-01T19:02:31;8.09;99.99
69162;DHT22;56269;51.738;21.652;2023-04-01T19:05:07;8.09;99.99
69162;DHT22;56269;51.738;21.652;2023-04-01T19:10:31;7.98;99.99
69162;DHT22;56269;51.738;21.652;2023-04-01T19:18:40;7.81;99.99
69162;DHT22;56269;51.738;21.652;2023-04-01T19:34:35;7.66;99.99
69162;DHT22;56269;51.738;21.652;2023-04-01T19:37:32;7.60;99.99
69162;DHT22;56269;51.738;21.652;2023-04-01T19:40:16;7.57;99.99
69162;DHT22;56269;51.738;21.652;2023-04-01T19:45:34;7.54;99.99
69162;DHT22;56269;51.738;21.652;2023-04-01T19:51:24;7.52;99.99
69162;DHT22;56269;51.738;21.652;2023-04-01T20:00:06;7.49;99.99
69162;DHT22;56269;51.738;21.652;2023-04-01T20:05:51;7.49;99.99
69162;DHT22;56269;51.738;21.652;2023-04-01T20:19:25;7.34;99.99
69162;DHT22;56269;51.738;21.652;2023-04-01T20:22:00;7.33;99.99
69162;DHT22;56269;51.738;21.652;2023-04-01T20:24:41;7.30;99.99
69162;DHT22;56269;51.738;21.652;2023-04-01T20:35:25;7.16;99.99
69162;DHT22;56269;51.738;21.652;2023-04-01T21:02:02;6.99;99.99
69162;DHT22;56269;51.738;21.652;2023-04-01T21:10:34;6.99;99.99
69162;DHT22;56269;51.738;21.652;2023-04-01T21:16:07;6.99;99.99
69162;DHT22;56269;51.738;21.652;2023-04-01T21:21:50;6.99;99.99
69162;DHT22;56269;51.738;21.652;2023-04-01T21:30:19;7.03;99.99
69162;DHT22;56269;51.738;21.652;2023-04-01T21:50:52;7.02;99.99
69162;DHT22;56269;51.738;21.652;2023-04-01T21:53:46;6.99;99.99
69162;DHT22;56269;51.738;21.652;2023-04-01T21:59:32;6.96;99.99
69162;DHT22;56269;51.738;21.652;2023-04-01T22:02:41;6.89;99.99
69162;DHT22;56269;51.738;21.652;2023-04-01T22:05:20;6.91;99.99
69162;DHT22;56269;51.738;21.652;2023-04-01T22:13:22;6.88;99.99
69162;DHT22;56269;51.738;21.652;2023-04-01T22:22:01;6.88;99.99
69162;DHT22;56269;51.738;21.652;2023-04-01T22:27:44;6.85;99.99
69162;DHT22;56269;51.738;21.652;2023-04-01T22:30:41;6.88;99.99
69162;DHT22;56269;51.738;21.652;2023-04-01T22:36:11;6.84;99.99
69162;DHT22;56269;51.738;21.652;2023-04-01T22:41:48;6.84;99.99
69162;DHT22;56269;51.738;21.652;2023-04-01T22:52:40;6.78;99.99
69162;DHT22;56269;51.738;21.652;2023-04-01T22:55:22;6.68;99.99
69162;DHT22;56269;51.738;21.652;2023-04-01T23:00:38;6.67;99.99
69162;DHT22;56269;51.738;21.652;2023-04-01T23:05:52;6.63;99.99
69162;DHT22;56269;51.738;21.652;2023-04-01T23:14:18;6.55;99.99
69162;DHT22;56269;51.738;21.652;2023-04-01T23:16:41;6.54;99.99
69162;DHT22;56269;51.738;21.652;2023-04-01T23:19:18;6.50;99.99
69162;DHT22;56269;51.738;21.652;2023-04-01T23:21:53;6.48;99.99
69162;DHT22;56269;51.738;21.652;2023-04-01T23:26:58;6.42;99.99
69162;DHT22;56269;51.738;21.652;2023-04-01T23:29:26;6.42;99.99
69162;DHT22;56269;51.738;21.652;2023-04-01T23:32:03;6.41;99.99
69162;DHT22;56269;51.738;21.652;2023-04-01T23:34:35;6.40;99.99
69162;DHT22;56269;51.738;21.652;2023-04-01T23:37:05;6.37;99.99
69162;DHT22;56269;51.738;21.652;2023-04-01T23:39:39;6.37;99.99
69162;DHT22;56269;51.738;21.652;2023-04-01T23:44:39;6.37;99.99
69162;DHT22;56269;51.738;21.652;2023-04-01T23:47:08;6.40;99.99
69162;DHT22;56269;51.738;21.652;2023-04-01T23:50:01;6.38;99.99
69162;DHT22;56269;51.738;21.652;2023-04-01T23:52:48;6.34;99.99
69162;DHT22;56269;51.738;21.652;2023-04-01T23:55:21;6.33;99.99
69162;DHT22;56269;51.738;21.652;2023-04-01T23:58:22;6.29;99.99
